Time;durP1;ratioP1;P1;durP2;ratioP2;P2;SDS_P1;SDS_P2;PMS_P1;PMS_P2;Temp;Humidity;BMP_temperature;BMP_pressure;BME280_temperature;BME280_humidity;BME280_pressure;Samples;Min_cycle;Max_cycle;Signal;HPM_P1;HPM_P2
2022/03/13 00:02:21;;;;;;;32.60;10.90;;;;;;;-7.33;100.00;100765.49;1670687;85;21080;-70
2022/03/13 00:04:50;;;;;;;29.10;11.20;;;;;;;-7.36;100.00;100761.66;1691792;84;21585;-70
2022/03/13 00:07:25;;;;;;;25.30;9.80;;;;;;;-7.39;100.00;100758.64;1638368;88;21105;-71
2022/03/13 00:09:51;;;;;;;23.53;9.73;;;;;;;-7.40;100.00;100755.62;1638371;88;21150;-70
2022/03/13 00:14:51;;;;;;;25.10;8.90;;;;;;;-7.40;100.00;100750.80;1567523;91;21134;-70
2022/03/13 00:17:19;;;;;;;25.83;9.33;;;;;;;-7.46;100.00;100750.50;1576066;91;21083;-70
2022/03/13 00:19:47;;;;;;;22.57;8.97;;;;;;;-7.50;100.00;100748.87;1580754;91;21095;-70
2022/03/13 00:22:14;;;;;;;21.37;8.40;;;;;;;-7.53;100.00;100751.10;1585744;90;21114;-70
2022/03/13 00:24:41;;;;;;;23.50;9.77;;;;;;;-7.57;100.00;100750.78;1629344;88;21090;-70
2022/03/13 00:27:09;;;;;;;24.80;8.50;;;;;;;-7.59;100.00;100756.98;1629725;88;21077;-69
2022/03/13 00:29:36;;;;;;;21.00;8.20;;;;;;;-7.64;100.00;100755.78;1606915;88;21565;-70
2022/03/13 00:32:05;;;;;;;22.03;8.20;;;;;;;-7.67;100.00;100754.07;1606809;88;21150;-70
2022/03/13 00:34:33;;;;;;;19.53;7.17;;;;;;;-7.69;100.00;100747.15;1606711;88;21065;-70
2022/03/13 00:37:00;;;;;;;17.33;7.47;;;;;;;-7.70;100.00;100758.54;1571354;88;21078;-70
2022/03/13 00:39:27;;;;;;;17.83;6.33;;;;;;;-7.70;100.00;100759.85;1629558;88;21054;-71
2022/03/13 00:41:54;;;;;;;20.33;7.27;;;;;;;-7.70;100.00;100758.54;1606740;88;21543;-71
2022/03/13 00:44:21;;;;;;;15.53;6.17;;;;;;;-7.72;100.00;100754.67;1606783;88;21082;-70
2022/03/13 00:46:49;;;;;;;16.67;6.93;;;;;;;-7.73;100.00;100754.23;1606624;88;21637;-71
2022/03/13 00:49:16;;;;;;;13.93;6.00;;;;;;;-7.72;100.00;100754.67;1629386;88;21078;-70
2022/03/13 00:51:44;;;;;;;16.33;6.57;;;;;;;-7.73;100.00;100754.23;1638526;85;21118;-70
2022/03/13 00:54:11;;;;;;;16.33;6.13;;;;;;;-7.74;100.00;100760.38;1660235;86;21105;-70
2022/03/13 00:56:38;;;;;;;17.43;6.13;;;;;;;-7.76;100.00;100766.58;1660475;86;21057;-70
2022/03/13 00:59:06;;;;;;;14.63;5.93;;;;;;;-7.79;100.00;100762.28;1660206;86;21131;-71
2022/03/13 01:01:33;;;;;;;11.63;5.50;;;;;;;-7.83;100.00;100761.46;1660380;86;21051;-70
2022/03/13 01:04:00;;;;;;;14.80;5.83;;;;;;;-7.82;100.00;100762.34;1660552;86;21038;-71
2022/03/13 01:06:27;;;;;;;17.33;6.50;;;;;;;-7.80;100.00;100766.25;1711701;83;21046;-71
2022/03/13 01:08:54;;;;;;;17.27;6.40;;;;;;;-7.81;100.00;100765.37;1717964;83;21034;-70
2022/03/13 01:11:22;;;;;;;16.83;5.93;;;;;;;-7.79;100.00;100764.02;1717998;83;21066;-70
2022/03/13 01:13:49;;;;;;;14.30;5.60;;;;;;;-7.78;100.00;100767.92;1718373;83;21046;-71
2022/03/13 01:16:29;;;;;;;12.07;5.40;;;;;;;-7.77;100.00;100768.36;1690847;83;21072;-70
2022/03/13 01:18:58;;;;;;;15.53;6.73;;;;;;;-7.76;100.00;100770.06;1651162;87;21084;-70
2022/03/13 01:21:27;;;;;;;17.37;6.30;;;;;;;-7.74;100.00;100767.41;1650987;87;21097;-70
2022/03/13 01:24:05;;;;;;;15.43;6.77;;;;;;;-7.74;100.00;100770.88;1632294;87;21571;-70
2022/03/13 01:26:36;;;;;;;13.80;6.37;;;;;;;-7.70;100.00;100769.05;1650946;87;21529;-71
2022/03/13 01:29:13;;;;;;;16.47;7.33;;;;;;;-7.66;100.00;100772.88;1632255;87;21119;-70
2022/03/13 01:31:46;;;;;;;16.93;6.93;;;;;;;-7.62;100.00;100772.81;1589432;89;21195;-71
2022/03/13 01:34:41;;;;;;;16.42;7.15;;;;;;;-7.62;100.00;100777.61;1589371;90;21038;-71
2022/03/13 01:37:33;;;;;;;15.73;6.83;;;;;;;-7.61;100.00;100780.66;1514752;93;21181;-71
2022/03/13 01:40:11;;;;;;;15.90;6.80;;;;;;;-7.59;100.00;100781.94;1468206;98;21149;-70
2022/03/13 01:42:45;;;;;;;15.70;7.23;;;;;;;-7.58;100.00;100783.65;1470886;97;21594;-71
2022/03/13 01:45:17;;;;;;;16.77;7.33;;;;;;;-7.58;100.00;100778.40;1452735;98;21102;-70
2022/03/13 01:47:45;;;;;;;17.00;7.50;;;;;;;-7.55;100.00;100778.33;1470703;97;21179;-69
2022/03/13 01:50:12;;;;;;;17.43;7.63;;;;;;;-7.53;100.00;100773.89;1454043;95;21383;-70
2022/03/13 01:52:48;;;;;;;17.60;7.43;;;;;;;-7.51;100.00;100781.28;1471323;97;21106;-70
2022/03/13 01:55:15;;;;;;;14.15;6.60;;;;;;;-7.50;100.00;100789.59;1469574;98;21114;-70
2022/03/13 01:57:45;;;;;;;18.53;7.60;;;;;;;-7.50;100.00;100785.64;1469377;96;21690;-71
2022/03/13 02:00:13;;;;;;;18.93;7.60;;;;;;;-7.54;100.00;100782.66;1469730;98;21146;-70
2022/03/13 02:02:47;;;;;;;16.12;7.62;;;;;;;-7.55;100.00;100787.52;1469577;96;21635;-71
2022/03/13 02:05:30;;;;;;;15.77;6.57;;;;;;;-7.57;100.00;100785.39;1469585;98;21571;-70
2022/03/13 02:07:58;;;;;;;15.03;7.07;;;;;;;-7.58;100.00;100787.59;1469717;98;21185;-70
2022/03/13 02:10:26;;;;;;;15.87;7.00;;;;;;;-7.60;100.00;100786.77;1470844;98;21089;-70
2022/03/13 02:12:55;;;;;;;17.57;7.90;;;;;;;-7.62;100.00;100788.12;1452546;98;21667;-71
2022/03/13 02:15:27;;;;;;;17.03;7.20;;;;;;;-7.62;100.00;100793.37;1517673;95;21150;-71
2022/03/13 02:17:55;;;;;;;15.63;7.08;;;;;;;-7.60;100.00;100797.28;1515272;95;21102;-70
2022/03/13 02:20:26;;;;;;;18.50;7.63;;;;;;;-7.58;100.00;100794.16;1515277;95;21082;-70
2022/03/13 02:23:00;;;;;;;12.77;6.47;;;;;;;-7.56;100.00;100788.41;1495574;95;21637;-70
2022/03/13 02:25:31;;;;;;;14.50;5.87;;;;;;;-7.56;100.00;100789.30;1475737;97;21120;-70
2022/03/13 02:27:57;;;;;;;12.30;5.73;;;;;;;-7.58;100.00;100796.32;1485763;96;21081;-71
2022/03/13 02:30:25;;;;;;;14.10;6.40;;;;;;;-7.60;100.00;100798.59;1522623;94;21101;-70
2022/03/13 02:32:53;;;;;;;14.17;6.23;;;;;;;-7.63;100.00;100802.17;1522600;94;21082;-70
2022/03/13 02:35:20;;;;;;;18.27;6.97;;;;;;;-7.64;100.00;100804.37;1527310;91;21122;-70
2022/03/13 02:37:47;;;;;;;20.80;8.20;;;;;;;-7.64;100.00;100801.73;1526487;93;21546;-70
2022/03/13 02:40:25;;;;;;;20.87;7.87;;;;;;;-7.63;100.00;100800.85;1546170;93;21640;-70
2022/03/13 02:42:52;;;;;;;18.77;7.67;;;;;;;-7.62;100.00;100805.64;1545777;92;21093;-70
2022/03/13 02:45:32;;;;;;;19.50;7.60;;;;;;;-7.61;100.00;100806.05;1545987;93;21598;-70
2022/03/13 02:48:00;;;;;;;17.23;7.73;;;;;;;-7.60;100.00;100802.07;1544306;93;21673;-70
2022/03/13 02:50:27;;;;;;;22.20;9.73;;;;;;;-7.60;100.00;100803.37;1546149;93;21142;-70
2022/03/13 02:52:54;;;;;;;19.07;8.70;;;;;;;-7.59;100.00;100805.58;1557137;91;21149;-70
2022/03/13 02:55:21;;;;;;;20.83;11.03;;;;;;;-7.61;100.00;100803.41;1542460;93;21239;-70
2022/03/13 02:57:49;;;;;;;20.47;11.43;;;;;;;-7.66;100.00;100809.66;1542618;92;21146;-70
2022/03/13 03:00:18;;;;;;;26.23;16.50;;;;;;;-7.69;100.00;100809.72;1542145;93;21101;-70
2022/03/13 03:02:47;;;;;;;23.57;13.97;;;;;;;-7.71;100.00;100812.84;1542205;93;21105;-70
2022/03/13 03:05:15;;;;;;;27.57;18.10;;;;;;;-7.74;100.00;100823.41;1594728;89;21107;-71
2022/03/13 03:07:42;;;;;;;22.97;14.10;;;;;;;-7.76;100.00;100823.89;1608620;89;21039;-69
2022/03/13 03:10:15;;;;;;;20.53;11.70;;;;;;;-7.79;100.00;100831.87;1608596;89;21110;-71
2022/03/13 03:12:42;;;;;;;16.63;8.83;;;;;;;-7.82;100.00;100831.47;1630292;88;21104;-70
2022/03/13 03:15:11;;;;;;;19.07;9.97;;;;;;;-7.83;100.00;100833.66;1593530;90;21578;-70
2022/03/13 03:17:39;;;;;;;17.77;9.70;;;;;;;-7.84;100.00;100836.36;1567537;91;21062;-70
2022/03/13 03:20:11;;;;;;;14.73;7.43;;;;;;;-7.86;100.00;100836.39;1567291;91;21050;-71
2022/03/13 03:22:40;;;;;;;17.83;7.53;;;;;;;-7.83;100.00;100844.63;1622021;87;21530;-70
2022/03/13 03:25:09;;;;;;;15.50;8.03;;;;;;;-7.84;100.00;100849.02;1639946;87;21043;-69
2022/03/13 03:27:39;;;;;;;15.17;7.27;;;;;;;-7.80;100.00;100852.45;1642421;87;21086;-70
2022/03/13 03:30:10;;;;;;;14.20;6.85;;;;;;;-7.81;100.00;100850.70;1641875;87;21598;-70
2022/03/13 03:32:39;;;;;;;13.53;7.33;;;;;;;-7.83;100.00;100853.82;1670794;86;21587;-70
2022/03/13 03:35:08;;;;;;;12.60;6.47;;;;;;;-7.86;100.00;100858.70;1670594;85;21061;-70
2022/03/13 03:37:36;;;;;;;15.97;6.40;;;;;;;-7.84;100.00;100857.36;1670913;86;21057;-70
2022/03/13 03:40:05;;;;;;;15.07;6.87;;;;;;;-7.87;100.00;100860.05;1646462;86;21042;-70
2022/03/13 03:42:35;;;;;;;15.87;6.77;;;;;;;-7.87;100.00;100862.67;1672722;86;21061;-70
2022/03/13 03:45:03;;;;;;;13.63;6.37;;;;;;;-7.87;100.00;100862.67;1670683;86;21089;-70
2022/03/13 03:47:30;;;;;;;13.03;6.17;;;;;;;-7.88;100.00;100867.07;1670688;86;21144;-71
2022/03/13 03:49:57;;;;;;;11.83;6.20;;;;;;;-7.89;100.00;100864.02;1645730;86;21081;-70
2022/03/13 03:52:24;;;;;;;14.30;7.27;;;;;;;-7.88;100.00;100866.18;1645889;86;21555;-70
2022/03/13 03:54:54;;;;;;;17.73;7.43;;;;;;;-7.89;100.00;100869.72;1645793;86;21049;-70
2022/03/13 03:57:21;;;;;;;14.43;6.90;;;;;;;-7.89;100.00;100877.14;1670938;86;21009;-71
2022/03/13 03:59:48;;;;;;;13.00;6.03;;;;;;;-7.93;100.00;100871.55;1670654;85;21030;-70
2022/03/13 04:02:15;;;;;;;12.17;5.40;;;;;;;-7.94;100.00;100883.39;1645937;86;21062;-70
2022/03/13 04:04:43;;;;;;;12.50;5.57;;;;;;;-7.97;100.00;100876.43;1670772;86;21037;-71
2022/03/13 04:07:10;;;;;;;12.70;6.47;;;;;;;-7.98;100.00;100878.66;1645473;86;21073;-70
2022/03/13 04:09:37;;;;;;;14.13;6.80;;;;;;;-7.99;100.00;100883.48;1645863;86;21034;-70
2022/03/13 04:12:07;;;;;;;15.13;6.40;;;;;;;-7.97;100.00;100884.31;1645353;86;21017;-69
2022/03/13 04:14:35;;;;;;;14.70;6.03;;;;;;;-7.95;100.00;100890.84;1671143;86;21058;-70
2022/03/13 04:17:03;;;;;;;13.27;6.43;;;;;;;-7.92;100.00;100891.64;1691049;84;21603;-70
2022/03/13 04:19:31;;;;;;;21.50;10.43;;;;;;;-7.87;100.00;100898.12;1714035;84;21504;-70
2022/03/13 04:21:59;;;;;;;30.37;15.47;;;;;;;-7.84;100.00;100904.16;1691959;84;21098;-70
2022/03/13 04:24:29;;;;;;;28.93;15.43;;;;;;;-7.80;100.00;100906.73;1691442;84;21097;-69
2022/03/13 04:26:56;;;;;;;23.10;11.30;;;;;;;-7.78;100.00;100909.72;1713716;84;21528;-70
2022/03/13 04:29:24;;;;;;;23.27;11.87;;;;;;;-7.76;100.00;100912.32;1714156;84;21011;-69
2022/03/13 04:31:53;;;;;;;24.33;11.30;;;;;;;-7.73;100.00;100910.95;1713964;84;21102;-70
2022/03/13 04:34:21;;;;;;;23.67;12.23;;;;;;;-7.69;100.00;100905.58;1714396;84;21082;-70
2022/03/13 04:36:48;;;;;;;20.67;8.70;;;;;;;-7.64;100.00;100915.53;1714012;84;21015;-70
2022/03/13 04:39:15;;;;;;;16.47;7.47;;;;;;;-7.60;100.00;100915.47;1713694;84;21083;-70
2022/03/13 04:41:43;;;;;;;18.57;7.20;;;;;;;-7.54;100.00;100920.14;1714003;84;21090;-71
2022/03/13 04:46:39;;;;;;;13.40;6.00;;;;;;;-7.38;100.00;100925.03;1659112;86;21105;-70
2022/03/13 04:49:06;;;;;;;14.20;5.80;;;;;;;-7.30;100.00;100928.35;1643177;87;21053;-69
2022/03/13 04:51:34;;;;;;;13.67;5.70;;;;;;;-7.22;100.00;100932.98;1643245;87;21046;-71
2022/03/13 04:54:01;;;;;;;15.03;6.20;;;;;;;-7.14;100.00;100940.22;1632860;87;21251;-70
2022/03/13 04:56:28;;;;;;;18.67;6.00;;;;;;;-7.07;100.00;100945.75;1631245;88;21113;-70
2022/03/13 04:58:56;;;;;;;13.17;5.87;;;;;;;-7.01;100.00;100947.81;1619928;89;21170;-69
2022/03/13 05:01:23;;;;;;;13.37;5.67;;;;;;;-6.96;100.00;100951.20;1619882;89;21079;-70
2022/03/13 05:03:50;;;;;;;17.10;5.63;;;;;;;-6.90;100.00;100949.29;1619926;89;21615;-70
2022/03/13 05:06:17;;;;;;;19.10;6.37;;;;;;;-6.81;100.00;100953.92;1620308;89;21104;-70
2022/03/13 05:08:44;;;;;;;12.63;5.60;;;;;;;-6.72;100.00;100955.00;1598614;89;21563;-69
2022/03/13 05:11:15;;;;;;;14.70;6.10;;;;;;;-6.64;100.00;100958.73;1631233;88;21578;-70
2022/03/13 05:13:42;;;;;;;16.00;5.83;;;;;;;-6.57;100.00;100957.24;1620148;89;21611;-70
2022/03/13 05:16:09;;;;;;;15.77;5.80;;;;;;;-6.46;100.00;100963.97;1608061;89;21072;-71
2022/03/13 05:18:38;;;;;;;14.83;5.63;;;;;;;-6.34;100.00;100964.96;1586998;90;21087;-70
2022/03/13 05:21:04;;;;;;;15.73;6.33;;;;;;;-6.23;100.00;100966.88;1587168;90;21552;-71
2022/03/13 05:23:33;;;;;;;18.27;5.73;;;;;;;-6.09;100.00;100974.40;1587106;90;21080;-71
2022/03/13 05:26:00;;;;;;;15.53;5.57;;;;;;;-5.97;100.00;100970.08;1587189;90;21127;-71
2022/03/13 05:28:27;;;;;;;13.73;5.80;;;;;;;-5.84;100.00;100986.39;1587240;90;21107;-71
2022/03/13 05:30:55;;;;;;;14.40;5.53;;;;;;;-5.70;100.00;100983.80;1566212;88;21348;-69
2022/03/13 05:33:22;;;;;;;14.67;5.40;;;;;;;-5.59;100.00;100983.90;1588724;90;21102;-70
2022/03/13 05:35:51;;;;;;;9.93;4.93;;;;;;;-5.46;100.00;100987.49;1587375;88;21087;-70
2022/03/13 05:38:18;;;;;;;14.57;5.60;;;;;;;-5.40;100.00;100999.16;1587394;90;21052;-71
2022/03/13 05:40:45;;;;;;;12.67;5.47;;;;;;;-5.32;100.00;101006.39;1587383;90;21592;-69
2022/03/13 05:43:13;;;;;;;13.47;5.23;;;;;;;-5.24;100.00;101009.67;1600800;89;21066;-70
2022/03/13 05:45:42;;;;;;;11.87;5.23;;;;;;;-5.11;100.00;101014.11;1652436;86;21609;-69
2022/03/13 05:48:13;;;;;;;14.47;6.63;;;;;;;-4.96;100.00;101012.75;1620410;88;21067;-70
2022/03/13 05:50:41;;;;;;;18.90;6.85;;;;;;;-4.82;100.00;101011.00;1643305;86;21539;-71
2022/03/13 05:53:09;;;;;;;12.00;5.40;;;;;;;-4.78;100.00;101022.73;1658254;86;21550;-71
2022/03/13 05:55:36;;;;;;;16.20;6.33;;;;;;;-4.70;100.00;101025.58;1639139;88;21555;-69
2022/03/13 05:58:03;;;;;;;22.73;7.57;;;;;;;-4.59;100.00;101027.40;1646045;86;21046;-69
2022/03/13 06:00:34;;;;;;;12.83;5.67;;;;;;;-4.49;100.00;101037.22;1639020;88;21053;-69
2022/03/13 06:03:01;;;;;;;12.60;5.00;;;;;;;-4.39;100.00;101036.86;1623017;88;21093;-70
2022/03/13 06:05:31;;;;;;;12.50;5.10;;;;;;;-4.31;100.00;101040.55;1622866;88;21630;-70
2022/03/13 06:07:58;;;;;;;11.23;5.17;;;;;;;-4.19;100.00;101041.92;1671425;86;21057;-69
2022/03/13 06:10:27;;;;;;;8.97;4.63;;;;;;;-4.03;100.00;101039.15;1653043;86;21050;-70
2022/03/13 06:12:54;;;;;;;9.10;4.20;;;;;;;-3.93;100.00;101046.74;1646102;86;21098;-71
2022/03/13 06:15:22;;;;;;;12.03;5.07;;;;;;;-3.87;100.00;101057.12;1640067;84;21156;-70
2022/03/13 06:17:51;;;;;;;9.83;4.50;;;;;;;-3.78;100.00;101055.93;1714339;84;21094;-71
2022/03/13 06:20:19;;;;;;;15.37;4.60;;;;;;;-3.63;100.00;101058.89;1670095;86;21058;-70
2022/03/13 06:22:47;;;;;;;11.00;4.57;;;;;;;-3.42;100.00;101059.00;1690630;84;21074;-70
2022/03/13 06:25:16;;;;;;;7.77;4.23;;;;;;;-3.14;100.00;101061.94;1670058;86;21026;-71
2022/03/13 06:27:44;;;;;;;13.37;4.60;;;;;;;-2.92;100.00;101060.64;1691750;84;21054;-70
2022/03/13 06:30:16;;;;;;;11.63;4.20;;;;;;;-2.73;100.00;101058.14;1670024;86;21539;-70
2022/03/13 06:32:46;;;;;;;9.33;3.70;;;;;;;-2.54;100.00;101059.59;1691928;84;21078;-69
2022/03/13 06:35:14;;;;;;;7.97;3.80;;;;;;;-2.33;100.00;101063.15;1603758;89;21054;-68
2022/03/13 06:37:42;;;;;;;12.03;4.07;;;;;;;-2.13;100.00;101065.81;1612861;89;21169;-69
2022/03/13 06:40:10;;;;;;;12.47;4.13;;;;;;;-2.15;100.00;101065.48;1612530;89;21132;-70
2022/03/13 06:42:38;;;;;;;9.33;3.63;;;;;;;-2.12;100.00;101073.32;1612792;89;21057;-71
2022/03/13 06:45:10;;;;;;;7.33;3.60;;;;;;;-2.02;100.00;101069.80;1612892;89;21534;-69
2022/03/13 06:47:38;;;;;;;14.27;4.67;;;;;;;-1.89;100.00;101080.29;1612505;89;21105;-69
2022/03/13 06:50:07;;;;;;;10.53;4.00;;;;;;;-1.79;100.00;101082.06;1612715;89;21607;-69
2022/03/13 06:52:35;;;;;;;6.83;3.33;;;;;;;-1.75;100.00;101082.34;1612540;89;21062;-70
2022/03/13 06:55:04;;;;;;;14.53;4.67;;;;;;;-1.69;100.00;101084.72;1614762;89;21618;-69
2022/03/13 06:57:32;;;;;;;9.83;4.00;;;;;;;-1.66;100.00;101090.38;1660758;86;21083;-71
2022/03/13 06:59:59;;;;;;;10.60;4.60;;;;;;;-1.53;100.00;101087.56;1660661;86;21032;-72
2022/03/13 07:02:26;;;;;;;8.20;3.90;;;;;;;-1.33;100.00;101089.31;1660434;86;21140;-68
2022/03/13 07:05:00;;;;;;;8.17;3.90;;;;;;;-1.12;100.00;101091.45;1660647;86;21091;-69
2022/03/13 07:07:27;;;;;;;9.23;4.20;;;;;;;-0.87;100.00;101094.30;1660409;86;21111;-70
2022/03/13 07:09:57;;;;;;;7.10;3.80;;;;;;;-0.62;100.00;101096.21;1660562;86;21064;-69
2022/03/13 07:12:25;;;;;;;10.83;4.67;;;;;;;-0.47;100.00;101099.06;1660728;86;21067;-70
2022/03/13 07:14:57;;;;;;;7.27;3.90;;;;;;;-0.34;100.00;101099.31;1660866;86;21524;-70
2022/03/13 07:17:22;;;;;;;8.17;3.97;;;;;;;-0.17;100.00;101102.00;1660620;86;21024;-70
2022/03/13 07:19:50;;;;;;;6.83;3.30;;;;;;;0.07;100.00;101109.68;1660771;86;21075;-69
2022/03/13 07:22:16;;;;;;;9.73;3.77;;;;;;;0.31;100.00;101114.23;1662827;86;21032;-70
2022/03/13 07:24:46;;;;;;;7.73;3.90;;;;;;;0.54;100.00;101114.37;1660893;86;21063;-70
2022/03/13 07:27:16;;;;;;;10.23;3.87;;;;;;;0.70;100.00;101113.09;1661173;86;21589;-69
2022/03/13 07:29:43;;;;;;;8.27;3.37;;;;;;;0.86;100.00;101123.30;1660619;86;21024;-70
2022/03/13 07:32:10;;;;;;;5.77;3.53;;;;;;;0.98;100.00;101121.80;1689510;84;21049;-69
2022/03/13 07:34:37;;;;;;;7.50;3.70;;;;;;;1.05;100.00;101123.17;1711250;84;21117;-70
2022/03/13 07:37:06;;;;;;;8.17;4.17;;;;;;;0.92;100.00;101124.32;1711065;83;21076;-70
2022/03/13 07:39:33;;;;;;;30.73;19.57;;;;;;;0.83;100.00;101120.80;1711134;82;21097;-70
2022/03/13 07:42:00;;;;;;;12.23;5.93;;;;;;;0.54;100.00;101129.01;1711330;84;20974;-70
2022/03/13 07:44:27;;;;;;;11.90;4.63;;;;;;;0.34;100.00;101122.91;1711403;83;21014;-69
2022/03/13 07:46:55;;;;;;;8.40;4.10;;;;;;;0.35;100.00;101135.73;1693166;84;21042;-70
2022/03/13 07:49:22;;;;;;;12.03;4.03;;;;;;;0.51;100.00;101126.05;1711018;83;21069;-69
2022/03/13 07:51:49;;;;;;;6.73;3.67;;;;;;;0.63;100.00;101132.98;1711342;84;21042;-69
2022/03/13 07:54:19;;;;;;;7.93;3.63;;;;;;;0.89;100.00;101140.45;1718650;83;21542;-70
2022/03/13 07:56:45;;;;;;;5.57;3.27;;;;;;;1.08;100.00;101138.12;1723648;83;21078;-68
2022/03/13 07:59:13;;;;;;;6.97;3.33;;;;;;;1.28;100.00;101137.05;1723321;83;21059;-70
2022/03/13 08:01:40;;;;;;;8.67;3.20;;;;;;;1.47;100.00;101136.42;1723693;83;21077;-69
2022/03/13 08:04:07;;;;;;;7.67;3.87;;;;;;;1.71;100.00;101132.82;1723472;83;20999;-68
2022/03/13 08:06:37;;;;;;;12.27;3.60;;;;;;;1.81;100.00;101136.33;1697225;83;21546;-69
2022/03/13 08:09:04;;;;;;;4.47;2.80;;;;;;;1.88;100.00;101135.02;1723600;83;21038;-69
2022/03/13 08:11:34;;;;;;;5.73;3.20;;;;;;;2.06;99.91;101137.94;1723588;83;21787;-69
2022/03/13 08:16:36;;;;;;;7.13;3.43;;;;;;;2.18;95.72;101140.83;1668452;86;21105;-69
2022/03/13 08:19:05;;;;;;;5.90;3.03;;;;;;;2.25;94.46;101147.07;1633913;88;21042;-69
2022/03/13 08:21:34;;;;;;;8.27;3.10;;;;;;;2.35;92.28;101150.04;1668680;86;21519;-70
2022/03/13 08:24:01;;;;;;;5.33;2.80;;;;;;;2.39;90.74;101152.05;1634127;88;21546;-69
2022/03/13 08:26:30;;;;;;;5.43;2.77;;;;;;;2.44;87.70;101148.64;1668710;86;21554;-69
2022/03/13 08:28:57;;;;;;;9.43;2.83;;;;;;;2.53;87.46;101143.22;1634103;88;21102;-71
2022/03/13 08:31:24;;;;;;;6.73;3.20;;;;;;;2.60;87.11;101144.12;1668746;86;21042;-70
2022/03/13 08:33:51;;;;;;;6.57;3.20;;;;;;;2.72;88.24;101154.51;1633941;88;21127;-69
2022/03/13 08:36:18;;;;;;;6.57;3.00;;;;;;;2.88;87.78;101153.09;1668713;86;21121;-69
2022/03/13 08:38:45;;;;;;;8.47;3.30;;;;;;;2.99;86.81;101151.98;1634238;88;21058;-68
2022/03/13 08:41:12;;;;;;;7.80;3.20;;;;;;;3.08;85.90;101152.34;1668881;86;21105;-68
2022/03/13 08:43:40;;;;;;;8.40;3.50;;;;;;;3.23;87.65;101150.91;1645179;86;21065;-70
2022/03/13 08:46:09;;;;;;;11.63;4.03;;;;;;;3.44;86.88;101149.66;1645461;86;21591;-69
2022/03/13 08:48:36;;;;;;;4.67;2.77;;;;;;;3.58;85.27;101150.48;1623642;86;21136;-68
2022/03/13 08:51:04;;;;;;;9.47;3.70;;;;;;;3.63;81.91;101156.00;1634289;88;21054;-69
2022/03/13 08:53:32;;;;;;;4.40;3.00;;;;;;;3.70;82.56;101161.33;1665541;86;21039;-69
2022/03/13 08:56:01;;;;;;;10.60;3.80;;;;;;;3.64;76.50;101166.61;1617798;89;21120;-69
2022/03/13 08:58:28;;;;;;;6.90;3.53;;;;;;;3.58;78.15;101170.54;1654271;87;21078;-69
2022/03/13 09:00:56;;;;;;;10.27;3.23;;;;;;;3.64;78.28;101165.76;1617972;89;21099;-68
2022/03/13 09:03:26;;;;;;;8.63;3.30;;;;;;;3.61;77.96;101173.48;1654292;87;21062;-69
2022/03/13 09:05:53;;;;;;;8.37;3.80;;;;;;;3.69;76.51;101177.02;1617779;89;21119;-69
2022/03/13 09:08:20;;;;;;;8.83;3.27;;;;;;;3.71;76.47;101175.95;1654616;87;21066;-69
2022/03/13 09:10:47;;;;;;;7.10;3.53;;;;;;;3.74;75.98;101182.45;1618503;88;21103;-68
2022/03/13 09:13:22;;;;;;;7.30;3.53;;;;;;;3.73;72.37;101175.86;1659571;86;21109;-68
2022/03/13 09:15:49;;;;;;;10.00;3.87;;;;;;;3.69;72.93;101171.67;1637189;86;21559;-69
2022/03/13 09:18:16;;;;;;;10.47;4.20;;;;;;;3.79;75.03;101171.46;1626430;88;21050;-70
2022/03/13 09:20:44;;;;;;;7.33;3.63;;;;;;;3.92;75.01;101168.84;1664996;86;21511;-68
2022/03/13 09:23:11;;;;;;;5.37;3.23;;;;;;;4.00;74.18;101161.14;1645529;86;21065;-71
2022/03/13 09:25:39;;;;;;;7.60;2.93;;;;;;;4.05;73.91;101167.05;1671406;86;21074;-68
2022/03/13 09:28:06;;;;;;;8.23;3.30;;;;;;;4.08;71.38;101162.84;1660397;86;21095;-67
2022/03/13 09:30:35;;;;;;;6.80;3.73;;;;;;;4.13;69.64;101164.73;1671904;85;21511;-69
2022/03/13 09:33:02;;;;;;;20.73;4.80;;;;;;;4.16;68.46;101164.55;1671629;86;21085;-68
2022/03/13 09:35:29;;;;;;;6.67;3.40;;;;;;;4.03;67.70;101168.98;1660342;86;21031;-68
2022/03/13 09:37:56;;;;;;;9.83;3.93;;;;;;;4.08;70.63;101166.02;1679599;85;21495;-68
2022/03/13 09:40:23;;;;;;;8.00;3.53;;;;;;;4.24;70.25;101160.00;1646499;86;21034;-69
2022/03/13 09:42:50;;;;;;;7.63;3.83;;;;;;;4.29;68.49;101162.38;1660388;86;21097;-68
2022/03/13 09:45:17;;;;;;;15.03;4.70;;;;;;;4.43;70.74;101156.95;1672245;86;21484;-68
2022/03/13 09:47:45;;;;;;;12.63;4.30;;;;;;;4.55;72.48;101160.59;1671619;86;21056;-68
2022/03/13 09:50:12;;;;;;;8.40;3.90;;;;;;;4.83;75.65;101153.34;1671509;86;21046;-69
2022/03/13 09:52:41;;;;;;;7.13;4.30;;;;;;;5.03;74.96;101162.20;1660492;86;21055;-68
2022/03/13 09:55:11;;;;;;;7.70;4.10;;;;;;;5.18;74.76;101156.23;1673695;85;21039;-67
2022/03/13 09:57:41;;;;;;;6.20;3.40;;;;;;;5.21;69.48;101158.70;1718310;83;21062;-68
2022/03/13 10:00:16;;;;;;;9.50;3.90;;;;;;;4.48;63.63;101162.86;1718109;83;21499;-68
2022/03/13 10:02:44;;;;;;;5.43;3.40;;;;;;;4.18;64.89;101161.28;1675247;85;21591;-68
2022/03/13 10:05:16;;;;;;;10.37;3.67;;;;;;;4.23;66.56;101158.77;1640217;87;21118;-68
2022/03/13 10:08:01;;;;;;;7.30;3.43;;;;;;;4.23;64.43;101172.16;1675321;86;21095;-67
2022/03/13 10:10:42;;;;;;;11.33;4.07;;;;;;;4.22;63.54;101169.11;1640166;87;21105;-69
2022/03/13 10:13:10;;;;;;;19.70;5.00;;;;;;;4.17;64.31;101174.27;1640220;87;21093;-68
2022/03/13 10:15:48;;;;;;;11.93;4.63;;;;;;;4.11;65.43;101169.83;1671580;86;21493;-67
2022/03/13 10:18:20;;;;;;;7.23;3.97;;;;;;;4.04;65.20;101177.86;1629318;88;21085;-68
2022/03/13 10:20:48;;;;;;;7.73;4.30;;;;;;;4.04;68.57;101174.72;1586438;90;21099;-70
2022/03/13 10:23:22;;;;;;;8.43;4.10;;;;;;;4.04;68.57;101174.72;1586242;90;22284;-68
2022/03/13 10:25:51;;;;;;;9.33;4.03;;;;;;;4.14;68.00;101174.50;1640862;87;21578;-68
2022/03/13 10:31:05;;;;;;;11.83;4.33;;;;;;;4.02;65.70;101183.80;1564099;92;21615;-69
2022/03/13 10:33:45;;;;;;;12.87;4.47;;;;;;;3.90;66.91;101174.77;1564142;91;21584;-69
2022/03/13 10:36:21;;;;;;;10.40;4.57;;;;;;;3.88;67.51;101179.34;1564083;92;21567;-67
2022/03/13 10:38:49;;;;;;;6.53;3.93;;;;;;;3.84;67.87;101180.02;1564255;92;21103;-69
2022/03/13 10:41:16;;;;;;;7.03;3.70;;;;;;;3.84;66.85;101177.83;1564133;92;21074;-69
2022/03/13 10:43:52;;;;;;;8.97;4.20;;;;;;;3.77;67.25;101178.70;1564145;92;21036;-67
2022/03/13 10:46:29;;;;;;;8.10;4.20;;;;;;;3.77;68.10;101178.70;1563957;92;21067;-70
2022/03/13 10:48:58;;;;;;;13.83;4.40;;;;;;;3.80;68.23;101178.02;1563954;92;21166;-67
2022/03/13 10:51:45;;;;;;;12.73;4.40;;;;;;;3.88;68.63;101176.20;1564210;92;21047;-68
2022/03/13 10:54:10;;;;;;;6.77;4.10;;;;;;;3.98;66.51;101176.45;1538176;92;21051;-68
2022/03/13 10:56:38;;;;;;;9.50;4.40;;;;;;;4.07;66.51;101175.87;1495056;94;21058;-69
2022/03/13 10:59:17;;;;;;;10.63;3.97;;;;;;;4.19;66.92;101177.70;1531670;93;21112;-68
2022/03/13 11:01:46;;;;;;;11.17;3.87;;;;;;;4.30;67.37;101182.83;1526137;94;21099;-68
2022/03/13 11:04:16;;;;;;;9.03;3.10;;;;;;;4.50;68.14;101189.05;1505792;94;21136;-69
2022/03/13 11:06:43;;;;;;;9.70;4.20;;;;;;;4.56;64.07;101181.08;1524562;94;21107;-69
2022/03/13 11:09:11;;;;;;;8.87;3.63;;;;;;;4.53;62.32;101180.81;1524621;94;21125;-69
2022/03/13 11:11:40;;;;;;;7.33;3.77;;;;;;;4.50;62.95;101175.66;1524644;94;21126;-71
2022/03/13 11:14:08;;;;;;;14.97;4.30;;;;;;;4.42;60.77;101173.97;1524398;94;21116;-69
2022/03/13 11:16:38;;;;;;;9.93;4.03;;;;;;;4.25;61.73;101179.14;1524422;94;21136;-70
2022/03/13 11:19:08;;;;;;;12.97;4.30;;;;;;;4.41;63.77;101175.41;1524388;94;21124;-70
2022/03/13 11:21:37;;;;;;;9.63;4.03;;;;;;;4.56;64.53;101175.23;1524282;94;21127;-70
2022/03/13 11:24:06;;;;;;;15.53;4.80;;;;;;;4.71;64.96;101181.38;1524491;94;21592;-69
2022/03/13 11:26:35;;;;;;;11.80;5.03;;;;;;;4.81;63.74;101192.80;1525148;91;21116;-69
2022/03/13 11:29:08;;;;;;;11.73;4.30;;;;;;;4.70;62.02;101186.84;1561614;92;21128;-69
2022/03/13 11:31:40;;;;;;;9.40;3.97;;;;;;;4.55;60.21;101195.42;1561279;92;21157;-69
2022/03/13 11:34:21;;;;;;;17.97;4.70;;;;;;;4.28;59.63;101196.31;1561509;92;21052;-69
2022/03/13 11:36:50;;;;;;;11.73;4.27;;;;;;;4.38;62.38;101197.91;1561623;92;22400;-69